createdAt,value
2023-05-05T00:00:00.356Z,61.90
2023-05-05T00:00:11.122Z,61.87
2023-05-05T00:00:22.177Z,61.90
2023-05-05T00:00:33.133Z,61.87
2023-05-05T00:00:43.923Z,61.90
2023-05-05T00:00:54.972Z,61.87
2023-05-05T00:01:05.945Z,61.90
2023-05-05T00:01:16.717Z,61.87
2023-05-05T00:01:27.756Z,61.87
2023-05-05T00:01:38.715Z,61.76
2023-05-05T00:01:49.495Z,61.79
2023-05-05T00:02:00.561Z,61.76
2023-05-05T00:02:11.564Z,61.76
2023-05-05T00:02:22.364Z,61.76
2023-05-05T00:02:33.410Z,61.76
2023-05-05T00:02:44.403Z,61.76
2023-05-05T00:02:55.223Z,61.76
2023-05-05T00:03:05.795Z,61.79
2023-05-05T00:03:16.827Z,61.66
2023-05-05T00:03:27.623Z,61.66
2023-05-05T00:03:38.250Z,61.66
2023-05-05T00:03:49.313Z,61.69
2023-05-05T00:04:00.284Z,61.66
2023-05-05T00:04:10.843Z,61.66
2023-05-05T00:04:21.966Z,61.66
2023-05-05T00:04:32.855Z,61.87
2023-05-05T00:04:43.934Z,61.87
2023-05-05T00:04:54.882Z,62.10
2023-05-05T00:05:05.653Z,62.17
2023-05-05T00:05:16.710Z,62.17
2023-05-05T00:05:27.681Z,62.27
2023-05-05T00:05:38.458Z,62.27
2023-05-05T00:05:49.479Z,62.27
2023-05-05T00:06:00.498Z,62.27
2023-05-05T00:06:11.228Z,62.27
2023-05-05T00:06:22.282Z,62.37
2023-05-05T00:06:33.266Z,62.37
2023-05-05T00:06:44.028Z,62.48
2023-05-05T00:06:55.066Z,62.48
2023-05-05T00:07:06.066Z,62.48
2023-05-05T00:07:16.796Z,62.48
2023-05-05T00:07:27.841Z,62.48
2023-05-05T00:07:38.826Z,62.48
2023-05-05T00:07:49.582Z,62.58
2023-05-05T00:08:00.624Z,62.68
2023-05-05T00:08:11.602Z,62.68
2023-05-05T00:08:22.386Z,62.71
2023-05-05T00:08:33.400Z,62.78
2023-05-05T00:08:44.384Z,62.78
2023-05-05T00:08:55.135Z,62.88
2023-05-05T00:09:06.176Z,62.88
2023-05-05T00:09:17.148Z,62.98
2023-05-05T00:09:27.919Z,62.98
2023-05-05T00:09:38.987Z,63.19
2023-05-05T00:09:50.037Z,63.19
2023-05-05T00:10:00.744Z,63.39
2023-05-05T00:10:11.786Z,63.59
2023-05-05T00:10:22.753Z,63.73
2023-05-05T00:10:33.529Z,63.80
2023-05-05T00:10:44.575Z,64.03
2023-05-05T00:10:55.544Z,64.11
2023-05-05T00:11:06.318Z,64.11
2023-05-05T00:11:17.399Z,64.03
2023-05-05T00:11:28.367Z,64.14
2023-05-05T00:11:39.120Z,64.03
2023-05-05T00:11:50.172Z,64.03
2023-05-05T00:12:01.147Z,64.11
2023-05-05T00:12:11.900Z,64.23
2023-05-05T00:12:22.974Z,64.41
2023-05-05T00:12:33.940Z,64.54
2023-05-05T00:12:44.750Z,64.64
2023-05-05T00:12:55.760Z,64.75
2023-05-05T00:13:06.794Z,64.64
2023-05-05T00:13:17.555Z,64.72
2023-05-05T00:13:28.636Z,64.75
2023-05-05T00:13:39.604Z,64.84
2023-05-05T00:13:50.330Z,64.84
2023-05-05T00:14:01.382Z,64.84
2023-05-05T00:14:12.420Z,64.95
2023-05-05T00:14:23.119Z,65.05
2023-05-05T00:14:34.165Z,65.16
2023-05-05T00:14:45.170Z,65.16
2023-05-05T00:14:55.936Z,65.16
2023-05-05T00:15:06.967Z,65.16
2023-05-05T00:15:17.951Z,65.16
2023-05-05T00:15:28.724Z,65.16
2023-05-05T00:15:39.786Z,65.25
2023-05-05T00:15:50.786Z,65.25
2023-05-05T00:16:01.520Z,65.36
2023-05-05T00:16:12.567Z,65.36
2023-05-05T00:16:23.557Z,65.25
2023-05-05T00:16:34.345Z,65.16
2023-05-05T00:16:45.390Z,65.05
2023-05-05T00:16:56.406Z,64.95
2023-05-05T00:17:07.265Z,64.84
2023-05-05T00:17:17.768Z,64.75
2023-05-05T00:17:28.736Z,64.64
2023-05-05T00:17:39.520Z,64.54
2023-05-05T00:17:50.563Z,64.44
2023-05-05T00:18:01.617Z,64.44
2023-05-05T00:18:12.505Z,64.44
2023-05-05T00:18:23.561Z,64.34
2023-05-05T00:18:34.521Z,64.34
2023-05-05T00:18:45.277Z,64.34
2023-05-05T00:18:56.324Z,64.44
2023-05-05T00:19:07.334Z,64.44
2023-05-05T00:19:18.058Z,64.54
2023-05-05T00:19:29.097Z,64.75
2023-05-05T00:19:40.087Z,64.84
2023-05-05T00:19:50.840Z,64.84
2023-05-05T00:20:01.899Z,64.84
2023-05-05T00:20:12.900Z,64.95
2023-05-05T00:20:23.644Z,64.95
2023-05-05T00:20:34.712Z,64.95
2023-05-05T00:20:45.694Z,65.05
2023-05-05T00:20:56.436Z,65.16
2023-05-05T00:21:07.490Z,65.16
2023-05-05T00:21:18.448Z,65.25
2023-05-05T00:21:29.211Z,65.25
2023-05-05T00:21:40.303Z,65.36
2023-05-05T00:21:51.254Z,65.36
2023-05-05T00:22:02.022Z,65.25
2023-05-05T00:22:13.064Z,65.25
2023-05-05T00:22:24.045Z,65.36
2023-05-05T00:22:34.814Z,65.36
2023-05-05T00:22:45.878Z,65.36
2023-05-05T00:22:56.829Z,65.39
2023-05-05T00:23:07.603Z,65.28
2023-05-05T00:23:18.641Z,65.16
2023-05-05T00:23:29.619Z,65.16
2023-05-05T00:23:40.479Z,65.16
2023-05-05T00:23:51.542Z,65.16
2023-05-05T00:24:02.500Z,65.16
2023-05-05T00:24:13.254Z,65.16
2023-05-05T00:24:24.312Z,65.19
2023-05-05T00:24:35.265Z,65.16
2023-05-05T00:24:46.031Z,65.19
2023-05-05T00:24:57.093Z,65.28
2023-05-05T00:25:08.050Z,65.25
2023-05-05T00:25:18.819Z,65.28
2023-05-05T00:25:29.869Z,65.28
2023-05-05T00:25:40.834Z,65.19
2023-05-05T00:25:51.598Z,65.28
2023-05-05T00:26:02.673Z,65.28
2023-05-05T00:26:13.614Z,65.28
2023-05-05T00:26:24.380Z,65.39
2023-05-05T00:26:35.422Z,65.36
2023-05-05T00:26:46.392Z,65.49
2023-05-05T00:26:57.159Z,65.49
2023-05-05T00:27:08.259Z,65.59
2023-05-05T00:27:19.186Z,65.59
2023-05-05T00:27:29.957Z,65.56
2023-05-05T00:27:41.088Z,65.59
2023-05-05T00:27:52.000Z,65.59
2023-05-05T00:28:02.766Z,65.49
2023-05-05T00:28:13.833Z,65.49
2023-05-05T00:28:24.808Z,65.49
2023-05-05T00:28:35.591Z,65.49
2023-05-05T00:28:46.630Z,65.39
2023-05-05T00:28:57.593Z,65.39
2023-05-05T00:29:08.367Z,65.39
2023-05-05T00:29:19.401Z,65.28
2023-05-05T00:29:30.366Z,65.28
2023-05-05T00:29:41.141Z,65.28
2023-05-05T00:29:52.187Z,65.25
2023-05-05T00:30:03.150Z,65.39
2023-05-05T00:30:13.923Z,65.49
2023-05-05T00:30:24.981Z,65.59
2023-05-05T00:30:35.943Z,65.80
2023-05-05T00:30:46.776Z,65.89
2023-05-05T00:30:57.823Z,65.89
2023-05-05T00:31:08.828Z,65.80
2023-05-05T00:31:19.603Z,65.80
2023-05-05T00:31:30.685Z,65.89
2023-05-05T00:31:41.745Z,65.89
2023-05-05T00:31:52.527Z,66.00
2023-05-05T00:32:03.598Z,66.10
2023-05-05T00:32:14.529Z,66.10
2023-05-05T00:32:25.330Z,66.10
2023-05-05T00:32:36.389Z,66.30
2023-05-05T00:32:47.356Z,66.41
2023-05-05T00:32:58.128Z,66.50
2023-05-05T00:33:09.124Z,66.50
2023-05-05T00:33:20.099Z,66.61
2023-05-05T00:33:30.895Z,66.71
2023-05-05T00:33:41.906Z,66.71
2023-05-05T00:33:52.875Z,66.71
2023-05-05T00:34:03.648Z,66.71
2023-05-05T00:34:14.685Z,66.71
2023-05-05T00:34:25.654Z,66.82
2023-05-05T00:34:36.415Z,66.82
2023-05-05T00:34:47.483Z,66.71
2023-05-05T00:34:58.442Z,66.71
2023-05-05T00:35:09.225Z,66.71
2023-05-05T00:35:20.298Z,66.61
2023-05-05T00:35:31.256Z,66.50
2023-05-05T00:35:42.007Z,66.50
2023-05-05T00:35:53.087Z,66.41
2023-05-05T00:36:04.049Z,66.41
2023-05-05T00:36:14.819Z,66.41
2023-05-05T00:36:25.892Z,66.30
2023-05-05T00:36:36.823Z,66.41
2023-05-05T00:36:47.578Z,66.41
2023-05-05T00:36:58.625Z,66.41
2023-05-05T00:37:09.602Z,66.50
2023-05-05T00:37:20.367Z,66.50
2023-05-05T00:37:31.424Z,66.50
2023-05-05T00:37:42.386Z,66.50
2023-05-05T00:37:53.141Z,66.50
2023-05-05T00:38:04.193Z,66.50
2023-05-05T00:38:15.157Z,66.61
2023-05-05T00:38:25.929Z,66.61
2023-05-05T00:38:37.031Z,66.61
2023-05-05T00:38:47.949Z,66.71
2023-05-05T00:38:58.713Z,66.71
2023-05-05T00:39:09.758Z,66.71
2023-05-05T00:39:20.740Z,66.71
2023-05-05T00:39:31.504Z,66.71
2023-05-05T00:39:42.589Z,66.71
2023-05-05T00:39:53.534Z,66.71
2023-05-05T00:40:04.316Z,66.71
2023-05-05T00:40:15.366Z,66.71
2023-05-05T00:40:26.338Z,66.71
2023-05-05T00:40:37.095Z,66.71
2023-05-05T00:40:48.138Z,66.71
2023-05-05T00:40:59.116Z,66.71
2023-05-05T00:41:09.925Z,66.61
2023-05-05T00:41:20.960Z,66.61
2023-05-05T00:41:31.928Z,66.50
2023-05-05T00:41:42.697Z,66.50
2023-05-05T00:41:53.734Z,66.50
2023-05-05T00:42:04.710Z,66.50
2023-05-05T00:42:15.495Z,66.61
2023-05-05T00:42:26.521Z,66.61
2023-05-05T00:42:37.491Z,66.61
2023-05-05T00:42:48.254Z,66.71
2023-05-05T00:42:59.298Z,66.71
2023-05-05T00:43:10.270Z,66.71
2023-05-05T00:43:21.050Z,66.71
2023-05-05T00:43:32.082Z,66.82
2023-05-05T00:43:43.049Z,66.82
2023-05-05T00:43:53.829Z,66.82
2023-05-05T00:44:04.864Z,67.02
2023-05-05T00:44:15.835Z,67.22
2023-05-05T00:44:26.653Z,67.22
2023-05-05T00:44:37.197Z,67.22
2023-05-05T00:44:48.142Z,67.22
2023-05-05T00:44:58.917Z,67.12
2023-05-05T00:45:09.960Z,67.12
2023-05-05T00:45:20.914Z,67.12
2023-05-05T00:45:31.710Z,67.12
2023-05-05T00:45:42.856Z,67.12
2023-05-05T00:45:53.815Z,67.12
2023-05-05T00:46:04.639Z,67.22
2023-05-05T00:46:15.163Z,67.22
2023-05-05T00:46:26.261Z,67.25
2023-05-05T00:46:37.061Z,67.32
2023-05-05T00:46:48.177Z,67.32
2023-05-05T00:46:59.129Z,67.22
2023-05-05T00:47:09.900Z,67.22
2023-05-05T00:47:20.928Z,67.22
2023-05-05T00:47:31.907Z,67.22
2023-05-05T00:47:42.690Z,67.22
2023-05-05T00:47:53.821Z,67.22
2023-05-05T00:48:04.765Z,67.25
2023-05-05T00:48:15.515Z,67.22
2023-05-05T00:48:26.552Z,67.22
2023-05-05T00:48:37.530Z,67.22
2023-05-05T00:48:48.288Z,67.22
2023-05-05T00:48:59.372Z,67.15
2023-05-05T00:49:10.359Z,67.12
2023-05-05T00:49:21.166Z,67.12
2023-05-05T00:49:31.681Z,67.15
2023-05-05T00:49:42.621Z,67.15
2023-05-05T00:49:53.391Z,67.25
2023-05-05T00:50:04.512Z,67.25
2023-05-05T00:50:15.492Z,67.25
2023-05-05T00:50:26.272Z,67.25
2023-05-05T00:50:37.368Z,67.25
2023-05-05T00:50:48.349Z,67.25
2023-05-05T00:50:59.095Z,67.22
2023-05-05T00:51:10.143Z,67.25
2023-05-05T00:51:21.101Z,67.25
2023-05-05T00:51:31.870Z,67.25
2023-05-05T00:51:42.913Z,67.25
2023-05-05T00:51:53.905Z,67.25
2023-05-05T00:52:04.656Z,67.25
2023-05-05T00:52:15.714Z,67.35
2023-05-05T00:52:26.680Z,67.35
2023-05-05T00:52:37.446Z,67.43
2023-05-05T00:52:48.493Z,67.46
2023-05-05T00:52:59.504Z,67.55
2023-05-05T00:53:10.236Z,67.55
2023-05-05T00:53:21.297Z,67.55
2023-05-05T00:53:32.246Z,67.55
2023-05-05T00:53:43.029Z,67.66
2023-05-05T00:53:54.055Z,67.55
2023-05-05T00:54:05.032Z,67.55
2023-05-05T00:54:15.795Z,67.52
2023-05-05T00:54:26.831Z,67.55
2023-05-05T00:54:37.797Z,67.66
2023-05-05T00:54:48.580Z,67.66
2023-05-05T00:54:59.616Z,67.66
2023-05-05T00:55:10.586Z,67.76
2023-05-05T00:55:21.376Z,67.66
2023-05-05T00:55:32.431Z,67.66
2023-05-05T00:55:43.400Z,67.66
2023-05-05T00:55:54.168Z,67.66
2023-05-05T00:56:05.217Z,67.76
2023-05-05T00:56:16.191Z,67.76
2023-05-05T00:56:26.986Z,67.86
2023-05-05T00:56:38.014Z,67.86
2023-05-05T00:56:48.995Z,67.86
2023-05-05T00:56:59.764Z,67.86
2023-05-05T00:57:10.832Z,67.76
2023-05-05T00:57:21.792Z,67.76
2023-05-05T00:57:32.575Z,67.76
2023-05-05T00:57:43.139Z,67.76
2023-05-05T00:57:54.092Z,67.86
2023-05-05T00:58:04.860Z,67.76
2023-05-05T00:58:15.898Z,67.66
2023-05-05T00:58:26.858Z,67.66
2023-05-05T00:58:37.630Z,67.66
2023-05-05T00:58:48.709Z,67.66
2023-05-05T00:58:59.210Z,67.66
2023-05-05T00:59:09.976Z,67.66
2023-05-05T00:59:21.031Z,67.66
2023-05-05T00:59:32.003Z,67.66
2023-05-05T00:59:42.769Z,67.76
2023-05-05T00:59:53.885Z,67.76
2023-05-05T01:00:04.810Z,67.76
2023-05-05T01:00:15.394Z,67.76
2023-05-05T01:00:26.434Z,67.86
2023-05-05T01:00:37.405Z,67.86
2023-05-05T01:00:48.178Z,67.86
2023-05-05T01:00:59.232Z,67.86
2023-05-05T01:01:10.301Z,67.96
2023-05-05T01:01:21.201Z,67.96
2023-05-05T01:01:32.278Z,67.96
2023-05-05T01:01:43.241Z,67.96
2023-05-05T01:01:54.007Z,67.96
2023-05-05T01:02:05.080Z,67.96
2023-05-05T01:02:16.087Z,67.96
2023-05-05T01:02:26.866Z,68.07
2023-05-05T01:02:37.944Z,68.07
2023-05-05T01:02:48.928Z,68.07
2023-05-05T01:02:59.781Z,68.17
2023-05-05T01:03:10.426Z,68.17
2023-05-05T01:03:20.950Z,68.17
2023-05-05T01:03:31.791Z,68.17
2023-05-05T01:03:42.433Z,68.27
2023-05-05T01:03:53.044Z,68.27
2023-05-05T01:04:03.902Z,68.27
2023-05-05T01:04:14.476Z,68.27
2023-05-05T01:04:25.436Z,68.27
2023-05-05T01:04:36.215Z,68.27
2023-05-05T01:04:47.270Z,68.27
2023-05-05T01:04:58.315Z,68.27
2023-05-05T01:05:09.094Z,68.30
2023-05-05T01:05:20.130Z,68.20
2023-05-05T01:05:31.108Z,68.30
2023-05-05T01:05:41.864Z,68.27
2023-05-05T01:05:53.033Z,68.27
2023-05-05T01:06:03.994Z,68.27
2023-05-05T01:06:14.738Z,68.27
2023-05-05T01:06:25.795Z,68.30
2023-05-05T01:06:36.769Z,68.27
2023-05-05T01:06:47.524Z,68.17
2023-05-05T01:06:58.602Z,68.17
2023-05-05T01:07:09.541Z,68.17
2023-05-05T01:07:20.319Z,68.17
2023-05-05T01:07:31.366Z,68.07
2023-05-05T01:07:42.343Z,68.07
2023-05-05T01:07:53.104Z,68.07
2023-05-05T01:08:04.155Z,68.17
2023-05-05T01:08:15.145Z,68.17
2023-05-05T01:08:25.895Z,68.17
2023-05-05T01:08:36.935Z,68.30
2023-05-05T01:08:47.902Z,68.27
2023-05-05T01:08:58.675Z,68.27
2023-05-05T01:09:09.732Z,68.30
2023-05-05T01:09:20.715Z,68.30
2023-05-05T01:09:31.467Z,68.27
2023-05-05T01:09:42.506Z,68.30
2023-05-05T01:10:15.256Z,68.30
2023-05-05T01:10:18.795Z,68.30
2023-05-05T01:10:20.457Z,68.30
2023-05-05T01:10:26.648Z,68.30
2023-05-05T01:10:37.033Z,68.30
2023-05-05T01:10:48.049Z,68.30
2023-05-05T01:10:59.062Z,68.27
2023-05-05T01:11:09.829Z,68.30
2023-05-05T01:11:20.872Z,68.30
2023-05-05T01:11:31.840Z,68.30
2023-05-05T01:11:42.619Z,68.30
2023-05-05T01:11:53.726Z,68.30
2023-05-05T01:12:04.709Z,68.40
2023-05-05T01:12:15.467Z,68.40
2023-05-05T01:12:26.516Z,68.51
2023-05-05T01:12:37.512Z,68.51
2023-05-05T01:12:48.267Z,68.51
2023-05-05T01:12:59.347Z,68.51
2023-05-05T01:13:10.343Z,68.51
2023-05-05T01:13:21.160Z,68.51
2023-05-05T01:13:32.210Z,68.51
2023-05-05T01:13:43.180Z,68.51
2023-05-05T01:13:53.945Z,68.51
2023-05-05T01:14:04.986Z,68.51
2023-05-05T01:14:15.986Z,68.51
2023-05-05T01:14:26.727Z,68.61
2023-05-05T01:14:37.788Z,68.61
2023-05-05T01:14:48.731Z,68.61
2023-05-05T01:14:59.502Z,68.61
2023-05-05T01:15:10.545Z,68.61
2023-05-05T01:15:21.507Z,68.61
2023-05-05T01:15:32.270Z,68.61
2023-05-05T01:15:43.342Z,68.61
2023-05-05T01:15:54.322Z,68.61
2023-05-05T01:16:05.096Z,68.71
2023-05-05T01:16:16.157Z,68.71
2023-05-05T01:16:27.176Z,68.81
2023-05-05T01:16:37.941Z,68.81
2023-05-05T01:16:48.988Z,68.81
2023-05-05T01:16:59.961Z,68.91
2023-05-05T01:17:10.732Z,68.91
2023-05-05T01:17:21.770Z,68.91
2023-05-05T01:17:32.799Z,68.91
2023-05-05T01:17:43.545Z,68.91
2023-05-05T01:17:54.598Z,69.02
2023-05-05T01:18:05.594Z,69.02
2023-05-05T01:18:16.305Z,69.02
2023-05-05T01:18:27.373Z,69.02
2023-05-05T01:18:38.360Z,69.12
2023-05-05T01:18:49.114Z,69.12
2023-05-05T01:19:00.168Z,69.12
2023-05-05T01:19:11.122Z,69.12
2023-05-05T01:19:21.897Z,69.02
2023-05-05T01:19:32.935Z,69.02
2023-05-05T01:19:43.940Z,69.02
2023-05-05T01:19:54.665Z,69.02
2023-05-05T01:20:05.828Z,69.12
2023-05-05T01:20:16.289Z,69.12
2023-05-05T01:20:27.056Z,69.12
2023-05-05T01:20:38.099Z,69.02
2023-05-05T01:20:49.129Z,69.02
2023-05-05T01:20:59.840Z,69.12
2023-05-05T01:21:10.910Z,69.12
2023-05-05T01:21:21.870Z,69.12
2023-05-05T01:21:32.640Z,69.12
2023-05-05T01:21:43.692Z,69.22
2023-05-05T01:21:54.675Z,69.12
2023-05-05T01:22:05.438Z,69.12
2023-05-05T01:22:16.479Z,69.12
2023-05-05T01:22:27.446Z,69.12
2023-05-05T01:22:38.208Z,69.22
2023-05-05T01:22:49.253Z,69.22
2023-05-05T01:23:00.260Z,69.22
2023-05-05T01:23:11.079Z,69.22
2023-05-05T01:23:22.061Z,69.22
2023-05-05T01:23:33.034Z,69.22
2023-05-05T01:23:43.801Z,69.22
2023-05-05T01:23:54.842Z,69.12
2023-05-05T01:24:05.814Z,69.22
2023-05-05T01:24:16.629Z,69.12
2023-05-05T01:24:27.643Z,69.12
2023-05-05T01:24:38.614Z,69.12
2023-05-05T01:24:49.380Z,69.12
2023-05-05T01:25:00.473Z,69.02
2023-05-05T01:25:11.402Z,69.02
2023-05-05T01:25:22.170Z,69.02
2023-05-05T01:25:33.212Z,69.02
2023-05-05T01:25:44.185Z,69.02
2023-05-05T01:25:54.955Z,68.95
2023-05-05T01:26:05.989Z,68.91
2023-05-05T01:26:16.970Z,68.95
2023-05-05T01:26:27.754Z,68.81
2023-05-05T01:26:38.807Z,68.84
2023-05-05T01:26:49.787Z,68.81
2023-05-05T01:27:00.531Z,68.81
2023-05-05T01:27:11.590Z,68.84
2023-05-05T01:27:22.571Z,68.95
2023-05-05T01:27:33.402Z,68.91
2023-05-05T01:27:43.884Z,68.91
2023-05-05T01:27:54.857Z,68.95
2023-05-05T01:28:05.626Z,68.95
2023-05-05T01:28:16.681Z,68.95
2023-05-05T01:28:27.640Z,68.95
2023-05-05T01:28:38.438Z,68.91
2023-05-05T01:28:49.484Z,69.05
2023-05-05T01:29:00.448Z,69.05
2023-05-05T01:29:11.212Z,69.05
2023-05-05T01:29:22.265Z,69.05
2023-05-05T01:29:33.216Z,69.05
2023-05-05T01:29:43.982Z,69.05
2023-05-05T01:29:55.044Z,69.05
2023-05-05T01:30:06.144Z,69.05
2023-05-05T01:30:16.994Z,69.15
2023-05-05T01:30:28.036Z,69.15
2023-05-05T01:30:39.006Z,69.25
2023-05-05T01:30:49.777Z,69.25
2023-05-05T01:31:00.834Z,69.25
2023-05-05T01:31:11.840Z,69.25
2023-05-05T01:31:22.607Z,69.35
2023-05-05T01:31:33.675Z,69.35
2023-05-05T01:31:44.661Z,69.35
2023-05-05T01:31:55.511Z,69.35
2023-05-05T01:32:06.009Z,69.35
2023-05-05T01:32:16.966Z,69.35
2023-05-05T01:32:27.781Z,69.35
2023-05-05T01:32:38.811Z,69.46
2023-05-05T01:32:49.834Z,69.46
2023-05-05T01:33:00.736Z,69.46
2023-05-05T01:33:11.775Z,69.46
2023-05-05T01:33:22.799Z,69.56
2023-05-05T01:33:33.514Z,69.56
2023-05-05T01:33:44.566Z,69.56
2023-05-05T01:33:55.528Z,69.56
2023-05-05T01:34:06.295Z,69.56
2023-05-05T01:34:17.067Z,69.56
2023-05-05T01:34:28.024Z,69.66
2023-05-05T01:34:38.878Z,69.66
2023-05-05T01:34:49.356Z,69.66
2023-05-05T01:35:00.309Z,69.66
2023-05-05T01:35:11.124Z,69.76
2023-05-05T01:35:21.636Z,69.76
2023-05-05T01:35:32.456Z,69.86
2023-05-05T01:35:43.242Z,69.86
2023-05-05T01:35:54.282Z,69.96
2023-05-05T01:36:05.232Z,70.07
2023-05-05T01:36:16.020Z,70.07
2023-05-05T01:36:27.056Z,70.07
2023-05-05T01:36:38.035Z,70.07
2023-05-05T01:36:48.651Z,70.07
2023-05-05T01:36:59.743Z,70.17
2023-05-05T01:37:10.692Z,70.17
2023-05-05T01:37:21.446Z,70.17
2023-05-05T01:37:32.491Z,70.17
2023-05-05T01:37:43.509Z,70.17
2023-05-05T01:37:54.229Z,70.27
2023-05-05T01:38:05.278Z,70.27
2023-05-05T01:38:16.296Z,70.27
2023-05-05T01:38:27.035Z,70.37
2023-05-05T01:38:38.083Z,70.37
2023-05-05T01:38:49.035Z,70.37
2023-05-05T01:38:59.813Z,70.48
2023-05-05T01:39:10.849Z,70.48
2023-05-05T01:39:21.830Z,70.48
2023-05-05T01:39:32.591Z,70.48
2023-05-05T01:39:43.625Z,70.48
2023-05-05T01:39:54.583Z,70.57
2023-05-05T01:40:05.547Z,70.57
2023-05-05T01:40:16.096Z,70.48
2023-05-05T01:40:27.072Z,70.48
2023-05-05T01:40:37.882Z,70.48
2023-05-05T01:40:48.925Z,70.48
2023-05-05T01:40:59.878Z,70.48
2023-05-05T01:41:10.649Z,70.48
2023-05-05T01:41:21.693Z,70.48
2023-05-05T01:41:32.665Z,70.57
2023-05-05T01:41:43.453Z,70.57
2023-05-05T01:41:54.474Z,70.57
2023-05-05T01:42:05.451Z,70.57
2023-05-05T01:42:16.232Z,70.57
2023-05-05T01:42:27.269Z,70.68
2023-05-05T01:42:38.229Z,70.68
2023-05-05T01:42:49.000Z,70.68
2023-05-05T01:43:00.055Z,70.68
2023-05-05T01:43:11.038Z,70.68
2023-05-05T01:43:21.797Z,70.68
2023-05-05T01:43:32.840Z,70.68
2023-05-05T01:43:43.804Z,70.68
2023-05-05T01:43:54.585Z,70.68
2023-05-05T01:44:05.634Z,70.68
2023-05-05T01:44:16.597Z,70.68
2023-05-05T01:44:27.395Z,70.68
2023-05-05T01:44:38.412Z,70.72
2023-05-05T01:44:49.401Z,70.68
2023-05-05T01:45:00.190Z,70.78
2023-05-05T01:45:11.204Z,70.78
2023-05-05T01:45:22.183Z,70.78
2023-05-05T01:45:33.000Z,70.78
2023-05-05T01:45:44.038Z,70.78
2023-05-05T01:45:54.994Z,70.89
2023-05-05T01:46:05.770Z,70.89
2023-05-05T01:46:16.847Z,70.92
2023-05-05T01:46:27.787Z,70.89
2023-05-05T01:46:38.621Z,70.89
2023-05-05T01:46:49.635Z,70.89
2023-05-05T01:47:00.605Z,70.89
2023-05-05T01:47:11.388Z,70.89
2023-05-05T01:47:22.433Z,70.98
2023-05-05T01:47:33.432Z,70.98
2023-05-05T01:47:44.152Z,70.98
2023-05-05T01:47:55.300Z,70.98
2023-05-05T01:48:06.287Z,70.98
2023-05-05T01:48:17.053Z,71.09
2023-05-05T01:48:28.079Z,71.19
2023-05-05T01:48:40.980Z,71.19
2023-05-05T01:48:49.972Z,71.29
2023-05-05T01:49:01.022Z,71.29
2023-05-05T01:49:12.093Z,71.39
2023-05-05T01:49:22.812Z,71.39
2023-05-05T01:49:33.889Z,71.50
2023-05-05T01:49:44.832Z,71.53
2023-05-05T01:49:55.621Z,71.50
2023-05-05T01:50:06.830Z,71.39
2023-05-05T01:50:17.293Z,71.43
2023-05-05T01:50:28.093Z,71.29
2023-05-05T01:50:39.104Z,71.33
2023-05-05T01:50:50.069Z,71.33
2023-05-05T01:51:00.832Z,71.33
2023-05-05T01:51:11.884Z,71.22
2023-05-05T01:51:22.896Z,71.19
2023-05-05T01:51:33.613Z,71.22
2023-05-05T01:51:44.666Z,71.12
2023-05-05T01:51:55.640Z,71.12
2023-05-05T01:52:06.439Z,71.12
2023-05-05T01:52:17.463Z,71.02
2023-05-05T01:52:28.458Z,71.02
2023-05-05T01:52:39.203Z,70.92
2023-05-05T01:52:50.256Z,70.92
2023-05-05T01:53:01.208Z,70.92
2023-05-05T01:53:11.996Z,70.92
2023-05-05T01:53:23.035Z,70.92
2023-05-05T01:53:33.988Z,70.92
2023-05-05T01:53:44.758Z,70.92
2023-05-05T01:53:55.832Z,70.92
2023-05-05T01:54:06.768Z,70.92
2023-05-05T01:54:17.538Z,70.92
2023-05-05T01:54:28.590Z,70.92
2023-05-05T01:54:39.539Z,70.92
2023-05-05T01:54:50.309Z,70.92
2023-05-05T01:55:01.354Z,70.92
2023-05-05T01:55:12.321Z,71.02
2023-05-05T01:55:23.112Z,71.02
2023-05-05T01:55:34.139Z,71.02
2023-05-05T01:55:45.111Z,71.02
2023-05-05T01:55:55.884Z,71.02
2023-05-05T01:56:06.908Z,71.02
2023-05-05T01:56:17.909Z,71.12
2023-05-05T01:56:28.649Z,71.12
2023-05-05T01:56:39.698Z,71.12
2023-05-05T01:56:50.694Z,71.12
2023-05-05T01:57:01.465Z,71.12
2023-05-05T01:57:12.492Z,71.12
2023-05-05T01:57:23.470Z,71.22
2023-05-05T01:57:34.253Z,71.22
2023-05-05T01:57:45.287Z,71.33
2023-05-05T01:57:56.266Z,71.33
2023-05-05T01:58:07.145Z,71.43
2023-05-05T01:58:17.598Z,71.43
2023-05-05T01:58:28.601Z,71.43
2023-05-05T01:58:39.444Z,71.53
2023-05-05T01:58:49.913Z,71.53
2023-05-05T01:59:00.880Z,71.63
2023-05-05T01:59:11.683Z,71.63
2023-05-05T01:59:22.721Z,71.63
2023-05-05T01:59:33.686Z,71.73
2023-05-05T01:59:44.444Z,71.73
2023-05-05T01:59:55.489Z,71.73
2023-05-05T02:00:06.676Z,71.84
2023-05-05T02:00:17.588Z,71.84
2023-05-05T02:00:28.628Z,71.84
2023-05-05T02:00:39.596Z,71.84
2023-05-05T02:00:50.357Z,71.84
2023-05-05T02:01:01.430Z,71.84
2023-05-05T02:01:12.392Z,71.94
2023-05-05T02:01:23.174Z,71.94
2023-05-05T02:01:34.229Z,71.94
2023-05-05T02:01:45.193Z,71.94
2023-05-05T02:01:55.962Z,71.94
2023-05-05T02:02:07.029Z,72.04
2023-05-05T02:02:18.092Z,72.04
2023-05-05T02:02:28.909Z,72.04
2023-05-05T02:02:39.506Z,71.94
2023-05-05T02:02:50.046Z,71.94
2023-05-05T02:03:00.861Z,71.94
2023-05-05T02:03:11.441Z,72.04
2023-05-05T02:03:21.993Z,72.04
2023-05-05T02:03:32.796Z,72.04
2023-05-05T02:03:43.833Z,72.04
2023-05-05T02:03:54.809Z,72.04
2023-05-05T02:04:05.575Z,72.04
2023-05-05T02:04:16.620Z,72.04
2023-05-05T02:04:27.601Z,72.04
2023-05-05T02:04:38.361Z,72.04
2023-05-05T02:04:49.414Z,72.14
2023-05-05T02:05:00.373Z,72.14
2023-05-05T02:05:11.155Z,72.14
2023-05-05T02:05:22.238Z,72.14
2023-05-05T02:05:33.224Z,72.04
2023-05-05T02:05:43.959Z,72.14
2023-05-05T02:05:55.005Z,72.14
2023-05-05T02:06:05.986Z,72.14
2023-05-05T02:06:16.776Z,72.14
2023-05-05T02:06:27.821Z,72.04
2023-05-05T02:06:38.817Z,72.04
2023-05-05T02:06:49.596Z,72.04
2023-05-05T02:07:00.628Z,72.04
2023-05-05T02:07:11.582Z,72.04
2023-05-05T02:07:22.360Z,72.04
2023-05-05T02:07:33.411Z,72.04
2023-05-05T02:07:44.376Z,72.04
2023-05-05T02:07:55.165Z,72.04
2023-05-05T02:08:06.187Z,72.04
2023-05-05T02:08:17.159Z,72.04
2023-05-05T02:08:27.927Z,72.04
2023-05-05T02:08:38.974Z,72.04
2023-05-05T02:08:49.944Z,72.04
2023-05-05T02:09:00.715Z,72.04
2023-05-05T02:09:11.775Z,72.04
2023-05-05T02:09:22.798Z,72.04
2023-05-05T02:09:33.556Z,72.04
2023-05-05T02:09:44.595Z,72.04
2023-05-05T02:09:55.560Z,72.04
2023-05-05T02:10:06.692Z,72.04
2023-05-05T02:10:17.258Z,72.04
2023-05-05T02:10:28.248Z,72.04
2023-05-05T02:10:38.996Z,72.04
2023-05-05T02:10:50.021Z,72.04
2023-05-05T02:11:00.994Z,72.04
2023-05-05T02:11:11.769Z,72.04
2023-05-05T02:11:22.808Z,72.04
2023-05-05T02:11:33.814Z,72.07
2023-05-05T02:11:44.572Z,72.04
2023-05-05T02:11:55.617Z,72.17
2023-05-05T02:12:06.596Z,72.17
2023-05-05T02:12:17.392Z,72.14
2023-05-05T02:12:28.437Z,72.14
2023-05-05T02:12:39.604Z,72.17
2023-05-05T02:12:50.385Z,72.14
2023-05-05T02:13:01.524Z,72.17
2023-05-05T02:13:12.567Z,72.17
2023-05-05T02:13:23.351Z,72.14
2023-05-05T02:13:34.394Z,72.28
2023-05-05T02:13:45.408Z,72.28
2023-05-05T02:13:56.212Z,72.24
2023-05-05T02:14:06.728Z,72.24
2023-05-05T02:14:17.687Z,72.28
2023-05-05T02:14:28.441Z,72.28
2023-05-05T02:14:39.492Z,72.24
2023-05-05T02:14:50.456Z,72.28
2023-05-05T02:15:01.249Z,72.28
2023-05-05T02:15:12.301Z,72.28
2023-05-05T02:15:23.248Z,72.38
2023-05-05T02:15:34.038Z,72.38
2023-05-05T02:15:45.075Z,72.38
2023-05-05T02:15:56.067Z,72.38
2023-05-05T02:16:06.848Z,72.38
2023-05-05T02:16:18.092Z,72.38
2023-05-05T02:16:28.541Z,72.48
2023-05-05T02:16:39.296Z,72.48
2023-05-05T02:16:50.341Z,72.48
2023-05-05T02:17:01.312Z,72.48
2023-05-05T02:17:12.120Z,72.58
2023-05-05T02:17:23.166Z,72.58
2023-05-05T02:17:34.217Z,72.58
2023-05-05T02:17:44.989Z,72.69
2023-05-05T02:17:56.081Z,72.69
2023-05-05T02:18:07.141Z,72.69
2023-05-05T02:18:17.880Z,72.79
2023-05-05T02:18:28.981Z,72.79
2023-05-05T02:18:39.895Z,72.79
2023-05-05T02:18:50.664Z,72.79
2023-05-05T02:19:01.710Z,72.79
2023-05-05T02:19:12.677Z,72.89
2023-05-05T02:19:23.443Z,72.89
2023-05-05T02:19:34.537Z,72.89
2023-05-05T02:19:45.482Z,72.89
2023-05-05T02:19:56.246Z,72.89
2023-05-05T02:20:07.465Z,72.99
2023-05-05T02:20:18.060Z,72.99
2023-05-05T02:20:28.828Z,73.10